METAR Data
IDs: Format: Raw Decoded Include TAF

Data at: 0604 UTC 19 Aug 2019

KHKA 190553Z AUTO 27004KT 10SM CLR 23/21 A2996 RMK AO2 SLP141 60045 T02280206 10300 20222 403500222 58003 $
KHKA 190453Z AUTO 23005KT 10SM CLR 23/21 A2996 RMK AO2 SLP142 T02330206 $
KHKA 190353Z AUTO 18007KT 10SM CLR 24/21 A2997 RMK AO2 SLP145 T02390206 $
KHKA 190253Z AUTO 15007KT 10SM CLR 24/22 A2997 RMK AO2 PK WND 17027/0209 LTG DSNT E AND SE RAE09 TSE0154 SLP145 P0000 60045 T02390217 53009 $
KHKA 190218Z AUTO 17010G27KT 10SM FEW055 FEW080 24/21 A2995 RMK AO2 PK WND 17027/0209 LTG DSNT E-S RAE09 TSE0154 P0000 T02390211 $
KHKA 190200Z AUTO 15011G22KT 7SM VCTS -RA SCT045 SCT070 BKN080 23/21 A2994 RMK AO2 LTG DSNT E-SW TSE0154 P0000 T02280206 $
KHKA 190153Z AUTO 13014G23KT 6SM -TSRA SCT036 BKN090 22/19 A2994 RMK AO2 PK WND 09037/0105 WSHFT 0131 LTG DSNT ALQDS RAB00 TSB00 SLP137 P0045 T02220194 $
KHKA 190145Z AUTO 16013G22KT 2 1/2SM TSRA BR BKN038 BKN060 22/20 A2996 RMK AO2 PK WND 09037/0105 WSHFT 0131 LTG DSNT ALQDS RAB00 TSB00 P0041 T02220200 $
KHKA 190141Z AUTO 16016G22KT 1 1/2SM +TSRA BR BKN038 OVC060 22/20 A2997 RMK AO2 PK WND 09037/0105 LTG DSNT ALQDS RAB00 TSB00 P0037 T02220200 $
KHKA 190126Z AUTO VRB03KT 3/4SM +TSRA BR BKN041 OVC050 22/20 A2996 RMK AO2 PK WND 09037/0105 LTG DSNT ALQDS RAB00 TSB00 P0020 T02220200 $
KHKA 190116Z AUTO 02014G32KT 2SM +TSRA SCT034 OVC047 24/19 A2996 RMK AO2 PK WND 09037/0105 LTG DSNT ALQDS RAB00 TSB00 P0010 T02390194 $
KHKA 190106Z AUTO 09028G37KT 4SM -TSRA BKN034 OVC042 26/19 A2994 RMK AO2 PK WND 09037/0105 LTG DSNT ALQDS RAB00 TSB00 P0001 T02560194 $
KHKA 190053Z AUTO 05009G17KT 10SM VCTS OVC032 27/21 A2994 RMK AO2 LTG DSNT ALQDS TSB24E39 SLP136 T02670206 $
KHKA 190045Z AUTO 05009G15KT 10SM VCTS BKN029 BKN036 OVC042 27/23 A2993 RMK AO2 LTG DSNT ALQDS TSB24E39 T02720228 $
KHKA 190030Z AUTO 36010G14KT 8SM TS FEW027 BKN044 OVC100 28/24 A2993 RMK AO2 LTG DSNT ALQDS TSB24 PRESRR T02780239 $
KHKA 190019Z AUTO 00000KT 9SM VCTS BKN046 BKN070 OVC100 29/23 A2991 RMK AO2 LTG DSNT ALQDS T02890233 $
KHKA 182353Z AUTO 00000KT 10SM BKN050 BKN075 OVC120 30/24 A2991 RMK AO2 LTG DSNT ALQDS TSB06E21 SLP126 T03000239 10350 20300 53006 $
KHKA 182327Z AUTO 20004KT 10SM FEW090 SCT110 31/23 A2991 RMK AO2 LTG DSNT SW TSB06E21 T03060233 $
KHKA 182312Z AUTO 20004KT 9SM TS CLR 30/23 A2990 RMK AO2 LTG DSNT SW TSB06 T03000233 $
KHKA 182302Z AUTO 21006KT 10SM VCTS CLR 31/23 A2990 RMK AO2 LTG DSNT ALQDS T03060233 $
KHKA 182253Z AUTO 20004KT 10SM CLR 31/23 A2990 RMK AO2 LTG DSNT SW AND W SLP122 T03060233 $
KHKA 182153Z AUTO 22005KT 10SM FEW046 32/23 A2990 RMK AO2 SLP123 T03170228 $
KHKA 182053Z AUTO 18010KT 10SM CLR 35/23 A2989 RMK AO2 SLP120 T03500228 56015 $
KHKA 181953Z AUTO 20011G21KT 10SM CLR 34/23 A2991 RMK AO2 SLP124 T03440228 $
KHKA 181853Z AUTO 21009G15KT 10SM CLR 34/22 A2993 RMK AO2 SLP131 T03390217 $
KHKA 181753Z AUTO 21010G19KT 10SM CLR 33/22 A2994 RMK AO2 SLP135 T03330222 10333 20239 58008 $
KHKA 181653Z AUTO 10SM CLR 33/24 A2996 RMK AO2 SLP144 T03280239 $
KHKA 181553Z AUTO 22006KT 10SM CLR 31/23 A2997 RMK AO2 SLP147 T03110228 $
KHKA 181453Z AUTO 21008KT 9SM CLR 29/22 A2996 RMK AO2 SLP144 T02890222 52009 $
KHKA 181353Z AUTO 21006KT 9SM CLR 27/22 A2996 RMK AO2 SLP141 T02720217 $
KHKA 181253Z AUTO 19005KT 9SM CLR 25/21 A2995 RMK AO2 SLP137 T02500211 $
KHKA 181153Z AUTO 16004KT 8SM CLR 24/21 A2994 RMK AO2 SLP135 T02390206 10261 20233 53011 $
KHKA 181053Z AUTO 18004KT 10SM CLR 24/21 A2993 RMK AO2 SLP133 T02390206 $
KHKA 180953Z AUTO 19004KT 10SM CLR 23/21 A2991 RMK AO2 SLP124 T02330206 $
KHKA 180853Z AUTO 19006KT 10SM CLR 24/21 A2990 RMK AO2 SLP123 T02390206 55007 $
KHKA 180753Z AUTO 19005KT 10SM CLR 24/21 A2990 RMK AO2 SLP123 T02440211 $
KHKA 180653Z AUTO 17004KT 10SM CLR 24/21 A2991 RMK AO2 SLP127 T02440211 $
KHKA 180553Z AUTO 17006KT 10SM CLR 26/21 A2993 RMK AO2 SLP130 T02610211 10317 20256 403440228 58001 $
KHKA 180453Z AUTO 15005KT 10SM CLR 26/21 A2993 RMK AO2 SLP133 T02560211 $
KHKA 180353Z AUTO 17005KT 10SM CLR 27/22 A2993 RMK AO2 SLP133 T02670217 $
KHKA 180253Z AUTO 19004KT 10SM CLR 27/22 A2993 RMK AO2 SLP131 T02720217 53009 $
KHKA 180153Z AUTO 18004KT 10SM CLR 28/22 A2991 RMK AO2 SLP126 T02780217 $
KHKA 180053Z AUTO 18003KT 10SM CLR 29/22 A2990 RMK AO2 SLP121 T02890217 $
KHKA 172353Z AUTO 19005KT 10SM CLR 32/22 A2990 RMK AO2 SLP122 T03170217 10344 20311 56005 $
KHKA 172253Z AUTO 19007KT 10SM CLR 33/21 A2991 RMK AO2 SLP124 T03330211 $
KHKA 172153Z AUTO 17006KT 10SM CLR 34/21 A2991 RMK AO2 SLP125 T03390211 $
KHKA 172053Z AUTO 17007KT 10SM FEW049 34/21 A2992 RMK AO2 SLP128 T03390206 56021 $
KHKA 171953Z AUTO VRB05KT 10SM CLR 33/21 A2993 RMK AO2 SLP133 T03330206 $
KHKA 171853Z AUTO 20007KT 10SM CLR 33/22 A2996 RMK AO2 SLP142 T03330217 $